sensor_id;sensor_type;location;lat;lon;timestamp;P1;durP1;ratioP1;P2;durP2;ratioP2
44143;SDS011;43510;51.920;4.492;2022-08-03T00:00:33;8.13;;;1.67;;
44143;SDS011;43510;51.920;4.492;2022-08-03T00:03:00;6.88;;;1.73;;
44143;SDS011;43510;51.920;4.492;2022-08-03T00:05:25;8.05;;;1.23;;
44143;SDS011;43510;51.920;4.492;2022-08-03T00:07:52;10.65;;;1.60;;
44143;SDS011;43510;51.920;4.492;2022-08-03T00:10:17;5.70;;;1.42;;
44143;SDS011;43510;51.920;4.492;2022-08-03T00:12:43;7.53;;;2.03;;
44143;SDS011;43510;51.920;4.492;2022-08-03T00:15:08;4.68;;;1.27;;
44143;SDS011;43510;51.920;4.492;2022-08-03T00:17:34;4.32;;;1.35;;
44143;SDS011;43510;51.920;4.492;2022-08-03T00:20:00;5.13;;;1.30;;
44143;SDS011;43510;51.920;4.492;2022-08-03T00:22:25;7.50;;;1.50;;
44143;SDS011;43510;51.920;4.492;2022-08-03T00:24:51;6.63;;;1.30;;
44143;SDS011;43510;51.920;4.492;2022-08-03T00:27:16;3.83;;;1.45;;
44143;SDS011;43510;51.920;4.492;2022-08-03T00:29:41;6.40;;;1.98;;
44143;SDS011;43510;51.920;4.492;2022-08-03T00:32:07;14.07;;;2.45;;
44143;SDS011;43510;51.920;4.492;2022-08-03T00:34:32;4.13;;;1.40;;
44143;SDS011;43510;51.920;4.492;2022-08-03T00:36:58;12.88;;;1.50;;
44143;SDS011;43510;51.920;4.492;2022-08-03T00:39:23;6.20;;;1.35;;
44143;SDS011;43510;51.920;4.492;2022-08-03T00:41:48;5.82;;;1.17;;
44143;SDS011;43510;51.920;4.492;2022-08-03T00:44:14;7.50;;;1.15;;
44143;SDS011;43510;51.920;4.492;2022-08-03T00:46:39;9.82;;;1.95;;
44143;SDS011;43510;51.920;4.492;2022-08-03T00:49:06;5.60;;;1.70;;
44143;SDS011;43510;51.920;4.492;2022-08-03T00:51:32;5.43;;;1.20;;
44143;SDS011;43510;51.920;4.492;2022-08-03T00:53:58;5.75;;;1.40;;
44143;SDS011;43510;51.920;4.492;2022-08-03T00:56:23;6.85;;;1.48;;
44143;SDS011;43510;51.920;4.492;2022-08-03T00:58:48;7.18;;;1.30;;
44143;SDS011;43510;51.920;4.492;2022-08-03T01:01:15;7.90;;;1.50;;
44143;SDS011;43510;51.920;4.492;2022-08-03T01:03:40;8.18;;;1.63;;
44143;SDS011;43510;51.920;4.492;2022-08-03T01:06:24;7.20;;;2.00;;
44143;SDS011;43510;51.920;4.492;2022-08-03T01:11:48;7.32;;;1.35;;
44143;SDS011;43510;51.920;4.492;2022-08-03T01:20:06;4.80;;;1.33;;
44143;SDS011;43510;51.920;4.492;2022-08-03T01:22:39;5.65;;;1.60;;
44143;SDS011;43510;51.920;4.492;2022-08-03T01:30:55;5.97;;;1.33;;
44143;SDS011;43510;51.920;4.492;2022-08-03T01:33:39;11.18;;;3.20;;
44143;SDS011;43510;51.920;4.492;2022-08-03T01:39:04;7.00;;;1.80;;
44143;SDS011;43510;51.920;4.492;2022-08-03T01:41:58;12.52;;;2.50;;
44143;SDS011;43510;51.920;4.492;2022-08-03T01:44:24;6.63;;;1.58;;
44143;SDS011;43510;51.920;4.492;2022-08-03T01:46:53;17.40;;;2.30;;
44143;SDS011;43510;51.920;4.492;2022-08-03T01:49:22;9.90;;;1.70;;
44143;SDS011;43510;51.920;4.492;2022-08-03T01:51:49;11.88;;;1.77;;
44143;SDS011;43510;51.920;4.492;2022-08-03T01:54:16;7.22;;;1.63;;
44143;SDS011;43510;51.920;4.492;2022-08-03T01:56:43;11.48;;;2.00;;
44143;SDS011;43510;51.920;4.492;2022-08-03T01:59:13;9.80;;;2.17;;
44143;SDS011;43510;51.920;4.492;2022-08-03T02:01:41;10.30;;;1.77;;
44143;SDS011;43510;51.920;4.492;2022-08-03T02:04:08;5.22;;;1.40;;
44143;SDS011;43510;51.920;4.492;2022-08-03T02:06:38;10.57;;;1.58;;
44143;SDS011;43510;51.920;4.492;2022-08-03T02:09:07;12.57;;;2.25;;
44143;SDS011;43510;51.920;4.492;2022-08-03T02:11:33;11.80;;;2.70;;
44143;SDS011;43510;51.920;4.492;2022-08-03T02:14:00;8.55;;;1.77;;
44143;SDS011;43510;51.920;4.492;2022-08-03T02:16:28;11.10;;;1.65;;
44143;SDS011;43510;51.920;4.492;2022-08-03T02:18:57;11.90;;;1.60;;
44143;SDS011;43510;51.920;4.492;2022-08-03T02:21:26;9.77;;;1.40;;
44143;SDS011;43510;51.920;4.492;2022-08-03T02:23:53;8.35;;;2.08;;
44143;SDS011;43510;51.920;4.492;2022-08-03T02:26:19;8.88;;;1.77;;
44143;SDS011;43510;51.920;4.492;2022-08-03T02:28:48;5.10;;;1.33;;
44143;SDS011;43510;51.920;4.492;2022-08-03T02:31:21;6.57;;;1.98;;
44143;SDS011;43510;51.920;4.492;2022-08-03T02:33:52;8.35;;;2.15;;
44143;SDS011;43510;51.920;4.492;2022-08-03T02:36:21;4.75;;;1.30;;
44143;SDS011;43510;51.920;4.492;2022-08-03T02:38:51;16.80;;;2.33;;
44143;SDS011;43510;51.920;4.492;2022-08-03T02:41:21;5.43;;;1.48;;
44143;SDS011;43510;51.920;4.492;2022-08-03T02:43:51;16.77;;;2.35;;
44143;SDS011;43510;51.920;4.492;2022-08-03T02:46:18;6.35;;;1.80;;
44143;SDS011;43510;51.920;4.492;2022-08-03T02:48:46;4.05;;;1.50;;
44143;SDS011;43510;51.920;4.492;2022-08-03T02:51:15;12.18;;;1.83;;
44143;SDS011;43510;51.920;4.492;2022-08-03T02:53:44;6.55;;;1.90;;
44143;SDS011;43510;51.920;4.492;2022-08-03T02:56:09;6.43;;;1.80;;
44143;SDS011;43510;51.920;4.492;2022-08-03T02:58:37;8.60;;;2.00;;
44143;SDS011;43510;51.920;4.492;2022-08-03T03:01:04;8.07;;;1.60;;
44143;SDS011;43510;51.920;4.492;2022-08-03T03:03:31;10.55;;;2.50;;
44143;SDS011;43510;51.920;4.492;2022-08-03T03:05:58;8.18;;;1.02;;
44143;SDS011;43510;51.920;4.492;2022-08-03T03:08:24;11.27;;;2.00;;
44143;SDS011;43510;51.920;4.492;2022-08-03T03:10:51;7.20;;;2.00;;
44143;SDS011;43510;51.920;4.492;2022-08-03T03:13:17;11.95;;;2.83;;
44143;SDS011;43510;51.920;4.492;2022-08-03T03:15:44;7.25;;;2.30;;
44143;SDS011;43510;51.920;4.492;2022-08-03T03:18:12;11.77;;;2.25;;
44143;SDS011;43510;51.920;4.492;2022-08-03T03:20:41;9.98;;;2.00;;
44143;SDS011;43510;51.920;4.492;2022-08-03T03:23:08;8.65;;;2.63;;
44143;SDS011;43510;51.920;4.492;2022-08-03T03:25:34;8.07;;;2.17;;
44143;SDS011;43510;51.920;4.492;2022-08-03T03:28:00;9.63;;;2.55;;
44143;SDS011;43510;51.920;4.492;2022-08-03T03:30:26;7.70;;;2.00;;
44143;SDS011;43510;51.920;4.492;2022-08-03T03:32:53;9.77;;;1.67;;
44143;SDS011;43510;51.920;4.492;2022-08-03T03:35:19;13.32;;;2.47;;
44143;SDS011;43510;51.920;4.492;2022-08-03T03:37:45;11.98;;;1.88;;
44143;SDS011;43510;51.920;4.492;2022-08-03T03:40:11;11.80;;;2.42;;
44143;SDS011;43510;51.920;4.492;2022-08-03T03:42:38;12.52;;;2.45;;
44143;SDS011;43510;51.920;4.492;2022-08-03T03:45:05;8.13;;;1.63;;
44143;SDS011;43510;51.920;4.492;2022-08-03T03:47:32;12.85;;;2.05;;
44143;SDS011;43510;51.920;4.492;2022-08-03T03:49:58;15.05;;;2.35;;
44143;SDS011;43510;51.920;4.492;2022-08-03T03:52:24;9.60;;;2.83;;
44143;SDS011;43510;51.920;4.492;2022-08-03T03:54:49;11.30;;;1.90;;
44143;SDS011;43510;51.920;4.492;2022-08-03T03:57:14;10.65;;;1.75;;
44143;SDS011;43510;51.920;4.492;2022-08-03T03:59:40;15.35;;;2.65;;
44143;SDS011;43510;51.920;4.492;2022-08-03T04:02:07;12.32;;;2.42;;
44143;SDS011;43510;51.920;4.492;2022-08-03T04:04:33;13.20;;;2.10;;
44143;SDS011;43510;51.920;4.492;2022-08-03T04:07:19;12.30;;;3.58;;
44143;SDS011;43510;51.920;4.492;2022-08-03T04:10:04;15.85;;;2.30;;
44143;SDS011;43510;51.920;4.492;2022-08-03T04:13:12;10.20;;;1.80;;
44143;SDS011;43510;51.920;4.492;2022-08-03T04:15:40;13.15;;;2.90;;
44143;SDS011;43510;51.920;4.492;2022-08-03T04:18:08;15.68;;;2.55;;
44143;SDS011;43510;51.920;4.492;2022-08-03T04:20:36;14.73;;;2.83;;
44143;SDS011;43510;51.920;4.492;2022-08-03T04:23:03;13.05;;;2.65;;
44143;SDS011;43510;51.920;4.492;2022-08-03T04:25:31;11.63;;;2.42;;
44143;SDS011;43510;51.920;4.492;2022-08-03T04:28:04;16.00;;;2.35;;
44143;SDS011;43510;51.920;4.492;2022-08-03T04:30:30;9.27;;;2.40;;
44143;SDS011;43510;51.920;4.492;2022-08-03T04:33:00;8.65;;;1.77;;
44143;SDS011;43510;51.920;4.492;2022-08-03T04:35:30;11.10;;;1.83;;
44143;SDS011;43510;51.920;4.492;2022-08-03T04:38:02;9.82;;;2.45;;
44143;SDS011;43510;51.920;4.492;2022-08-03T04:40:35;17.35;;;2.67;;
44143;SDS011;43510;51.920;4.492;2022-08-03T04:43:04;8.63;;;1.90;;
44143;SDS011;43510;51.920;4.492;2022-08-03T04:45:31;10.27;;;1.95;;
44143;SDS011;43510;51.920;4.492;2022-08-03T04:47:58;13.43;;;2.25;;
44143;SDS011;43510;51.920;4.492;2022-08-03T04:50:24;13.57;;;2.35;;
44143;SDS011;43510;51.920;4.492;2022-08-03T04:52:52;10.80;;;2.17;;
44143;SDS011;43510;51.920;4.492;2022-08-03T04:55:30;11.98;;;2.20;;
44143;SDS011;43510;51.920;4.492;2022-08-03T04:57:57;13.63;;;2.60;;
44143;SDS011;43510;51.920;4.492;2022-08-03T05:00:24;8.60;;;2.13;;
44143;SDS011;43510;51.920;4.492;2022-08-03T05:02:50;5.88;;;1.83;;
44143;SDS011;43510;51.920;4.492;2022-08-03T05:05:17;11.80;;;2.90;;
44143;SDS011;43510;51.920;4.492;2022-08-03T05:07:43;14.52;;;2.80;;
44143;SDS011;43510;51.920;4.492;2022-08-03T05:10:09;7.93;;;1.85;;
44143;SDS011;43510;51.920;4.492;2022-08-03T05:12:35;11.18;;;2.35;;
44143;SDS011;43510;51.920;4.492;2022-08-03T05:15:02;9.48;;;2.45;;
44143;SDS011;43510;51.920;4.492;2022-08-03T05:17:28;14.00;;;2.33;;
44143;SDS011;43510;51.920;4.492;2022-08-03T05:19:53;13.77;;;3.38;;
44143;SDS011;43510;51.920;4.492;2022-08-03T05:22:19;13.10;;;2.83;;
44143;SDS011;43510;51.920;4.492;2022-08-03T05:24:45;12.48;;;2.60;;
44143;SDS011;43510;51.920;4.492;2022-08-03T05:27:10;6.15;;;2.03;;
44143;SDS011;43510;51.920;4.492;2022-08-03T05:29:41;15.52;;;2.67;;
44143;SDS011;43510;51.920;4.492;2022-08-03T05:32:07;11.63;;;2.28;;
44143;SDS011;43510;51.920;4.492;2022-08-03T05:34:32;8.00;;;1.88;;
44143;SDS011;43510;51.920;4.492;2022-08-03T05:36:58;15.38;;;2.17;;
44143;SDS011;43510;51.920;4.492;2022-08-03T05:39:23;10.95;;;2.28;;
44143;SDS011;43510;51.920;4.492;2022-08-03T05:41:52;10.00;;;2.60;;
44143;SDS011;43510;51.920;4.492;2022-08-03T05:44:18;14.07;;;3.25;;
44143;SDS011;43510;51.920;4.492;2022-08-03T05:46:43;12.73;;;3.05;;
44143;SDS011;43510;51.920;4.492;2022-08-03T05:49:08;12.35;;;3.17;;
44143;SDS011;43510;51.920;4.492;2022-08-03T05:51:34;10.88;;;2.38;;
44143;SDS011;43510;51.920;4.492;2022-08-03T05:54:01;16.60;;;3.05;;
44143;SDS011;43510;51.920;4.492;2022-08-03T05:56:26;12.32;;;2.80;;
44143;SDS011;43510;51.920;4.492;2022-08-03T05:58:51;9.15;;;2.70;;
44143;SDS011;43510;51.920;4.492;2022-08-03T06:01:17;20.33;;;3.65;;
44143;SDS011;43510;51.920;4.492;2022-08-03T06:03:45;15.68;;;3.35;;
44143;SDS011;43510;51.920;4.492;2022-08-03T06:06:11;13.57;;;2.90;;
44143;SDS011;43510;51.920;4.492;2022-08-03T06:08:37;14.30;;;3.63;;
44143;SDS011;43510;51.920;4.492;2022-08-03T06:11:04;15.70;;;3.88;;
44143;SDS011;43510;51.920;4.492;2022-08-03T06:13:29;16.77;;;4.75;;
44143;SDS011;43510;51.920;4.492;2022-08-03T06:15:54;16.33;;;3.42;;
44143;SDS011;43510;51.920;4.492;2022-08-03T06:18:20;12.07;;;3.80;;
44143;SDS011;43510;51.920;4.492;2022-08-03T06:20:45;14.38;;;4.13;;
44143;SDS011;43510;51.920;4.492;2022-08-03T06:23:11;15.05;;;4.00;;
44143;SDS011;43510;51.920;4.492;2022-08-03T06:25:36;12.80;;;3.58;;
44143;SDS011;43510;51.920;4.492;2022-08-03T06:28:02;15.73;;;3.70;;
44143;SDS011;43510;51.920;4.492;2022-08-03T06:30:29;20.88;;;4.50;;
44143;SDS011;43510;51.920;4.492;2022-08-03T06:32:54;12.82;;;4.72;;
44143;SDS011;43510;51.920;4.492;2022-08-03T06:35:20;17.58;;;5.15;;
44143;SDS011;43510;51.920;4.492;2022-08-03T06:37:46;11.30;;;4.93;;
44143;SDS011;43510;51.920;4.492;2022-08-03T06:40:15;16.00;;;5.53;;
44143;SDS011;43510;51.920;4.492;2022-08-03T06:42:42;10.45;;;5.40;;
44143;SDS011;43510;51.920;4.492;2022-08-03T06:45:09;19.15;;;6.50;;
44143;SDS011;43510;51.920;4.492;2022-08-03T06:47:42;14.77;;;5.78;;
44143;SDS011;43510;51.920;4.492;2022-08-03T06:50:08;15.15;;;6.15;;
44143;SDS011;43510;51.920;4.492;2022-08-03T06:52:33;15.20;;;6.25;;
44143;SDS011;43510;51.920;4.492;2022-08-03T06:54:59;14.52;;;6.40;;
44143;SDS011;43510;51.920;4.492;2022-08-03T06:57:28;19.48;;;7.28;;
44143;SDS011;43510;51.920;4.492;2022-08-03T06:59:53;19.77;;;6.60;;
44143;SDS011;43510;51.920;4.492;2022-08-03T07:02:20;12.23;;;6.30;;
44143;SDS011;43510;51.920;4.492;2022-08-03T07:04:46;19.08;;;6.60;;
44143;SDS011;43510;51.920;4.492;2022-08-03T07:07:13;15.77;;;6.07;;
44143;SDS011;43510;51.920;4.492;2022-08-03T07:09:39;15.40;;;6.28;;
44143;SDS011;43510;51.920;4.492;2022-08-03T07:12:05;15.52;;;6.60;;
44143;SDS011;43510;51.920;4.492;2022-08-03T07:14:30;15.30;;;6.40;;
44143;SDS011;43510;51.920;4.492;2022-08-03T07:16:56;19.60;;;7.03;;
44143;SDS011;43510;51.920;4.492;2022-08-03T07:19:22;17.13;;;6.13;;
44143;SDS011;43510;51.920;4.492;2022-08-03T07:21:48;13.63;;;6.38;;
44143;SDS011;43510;51.920;4.492;2022-08-03T07:24:13;15.90;;;6.18;;
44143;SDS011;43510;51.920;4.492;2022-08-03T07:26:38;17.27;;;5.68;;
44143;SDS011;43510;51.920;4.492;2022-08-03T07:29:04;16.50;;;5.35;;
44143;SDS011;43510;51.920;4.492;2022-08-03T07:31:29;17.13;;;5.95;;
44143;SDS011;43510;51.920;4.492;2022-08-03T07:33:54;25.50;;;6.53;;
44143;SDS011;43510;51.920;4.492;2022-08-03T07:36:20;15.68;;;6.05;;
44143;SDS011;43510;51.920;4.492;2022-08-03T07:38:46;10.90;;;5.35;;
44143;SDS011;43510;51.920;4.492;2022-08-03T07:41:11;19.83;;;5.78;;
44143;SDS011;43510;51.920;4.492;2022-08-03T07:43:36;15.02;;;5.85;;
44143;SDS011;43510;51.920;4.492;2022-08-03T07:46:02;14.00;;;6.32;;
44143;SDS011;43510;51.920;4.492;2022-08-03T07:48:27;18.42;;;6.40;;
44143;SDS011;43510;51.920;4.492;2022-08-03T07:50:53;14.57;;;6.93;;
44143;SDS011;43510;51.920;4.492;2022-08-03T07:53:18;15.75;;;6.07;;
44143;SDS011;43510;51.920;4.492;2022-08-03T07:55:43;14.18;;;5.40;;
44143;SDS011;43510;51.920;4.492;2022-08-03T07:58:10;14.45;;;6.13;;
44143;SDS011;43510;51.920;4.492;2022-08-03T08:00:39;14.00;;;5.65;;
44143;SDS011;43510;51.920;4.492;2022-08-03T08:03:06;14.70;;;5.80;;
44143;SDS011;43510;51.920;4.492;2022-08-03T08:05:32;22.10;;;5.75;;
44143;SDS011;43510;51.920;4.492;2022-08-03T08:07:58;13.45;;;5.30;;
44143;SDS011;43510;51.920;4.492;2022-08-03T08:10:24;14.65;;;5.68;;
44143;SDS011;43510;51.920;4.492;2022-08-03T08:12:49;12.02;;;4.95;;
44143;SDS011;43510;51.920;4.492;2022-08-03T08:15:15;23.63;;;5.72;;
44143;SDS011;43510;51.920;4.492;2022-08-03T08:17:42;16.63;;;5.90;;
44143;SDS011;43510;51.920;4.492;2022-08-03T08:20:14;18.08;;;5.60;;
44143;SDS011;43510;51.920;4.492;2022-08-03T08:22:41;17.95;;;7.07;;
44143;SDS011;43510;51.920;4.492;2022-08-03T08:25:07;12.73;;;5.35;;
44143;SDS011;43510;51.920;4.492;2022-08-03T08:27:32;16.83;;;5.70;;
44143;SDS011;43510;51.920;4.492;2022-08-03T08:30:04;10.90;;;5.25;;
44143;SDS011;43510;51.920;4.492;2022-08-03T08:32:31;15.02;;;5.65;;
44143;SDS011;43510;51.920;4.492;2022-08-03T08:34:56;20.08;;;6.80;;
44143;SDS011;43510;51.920;4.492;2022-08-03T08:37:21;15.70;;;5.40;;
44143;SDS011;43510;51.920;4.492;2022-08-03T08:39:47;19.05;;;6.10;;
44143;SDS011;43510;51.920;4.492;2022-08-03T08:42:12;12.23;;;5.68;;
44143;SDS011;43510;51.920;4.492;2022-08-03T08:44:39;18.02;;;5.68;;
44143;SDS011;43510;51.920;4.492;2022-08-03T08:47:04;11.10;;;5.32;;
44143;SDS011;43510;51.920;4.492;2022-08-03T08:49:32;10.80;;;5.47;;
44143;SDS011;43510;51.920;4.492;2022-08-03T08:52:01;9.70;;;4.60;;
44143;SDS011;43510;51.920;4.492;2022-08-03T08:54:28;16.23;;;6.45;;
44143;SDS011;43510;51.920;4.492;2022-08-03T08:56:55;11.23;;;4.93;;
44143;SDS011;43510;51.920;4.492;2022-08-03T08:59:25;14.35;;;6.03;;
44143;SDS011;43510;51.920;4.492;2022-08-03T09:01:53;11.88;;;5.72;;
44143;SDS011;43510;51.920;4.492;2022-08-03T09:04:20;13.93;;;6.10;;
44143;SDS011;43510;51.920;4.492;2022-08-03T09:06:46;13.38;;;5.15;;
44143;SDS011;43510;51.920;4.492;2022-08-03T09:09:12;13.50;;;6.50;;
44143;SDS011;43510;51.920;4.492;2022-08-03T09:11:40;14.98;;;5.95;;
44143;SDS011;43510;51.920;4.492;2022-08-03T09:14:06;14.40;;;5.53;;
44143;SDS011;43510;51.920;4.492;2022-08-03T09:16:33;12.05;;;5.30;;
44143;SDS011;43510;51.920;4.492;2022-08-03T09:19:09;12.07;;;5.50;;
44143;SDS011;43510;51.920;4.492;2022-08-03T09:21:37;16.10;;;5.85;;
44143;SDS011;43510;51.920;4.492;2022-08-03T09:24:04;13.52;;;5.75;;
44143;SDS011;43510;51.920;4.492;2022-08-03T09:26:31;13.13;;;6.10;;
44143;SDS011;43510;51.920;4.492;2022-08-03T09:34:06;15.48;;;6.93;;
44143;SDS011;43510;51.920;4.492;2022-08-03T09:36:37;13.75;;;5.75;;
44143;SDS011;43510;51.920;4.492;2022-08-03T09:39:11;15.48;;;5.47;;
44143;SDS011;43510;51.920;4.492;2022-08-03T09:41:38;12.07;;;5.05;;
44143;SDS011;43510;51.920;4.492;2022-08-03T09:44:06;17.25;;;5.20;;
44143;SDS011;43510;51.920;4.492;2022-08-03T09:49:19;14.57;;;5.13;;
44143;SDS011;43510;51.920;4.492;2022-08-03T09:51:45;15.52;;;5.28;;
44143;SDS011;43510;51.920;4.492;2022-08-03T09:54:10;14.30;;;4.38;;
44143;SDS011;43510;51.920;4.492;2022-08-03T09:56:37;21.08;;;4.75;;
44143;SDS011;43510;51.920;4.492;2022-08-03T09:59:09;14.88;;;4.22;;
44143;SDS011;43510;51.920;4.492;2022-08-03T10:01:37;12.18;;;5.18;;
44143;SDS011;43510;51.920;4.492;2022-08-03T10:04:11;12.98;;;4.55;;
44143;SDS011;43510;51.920;4.492;2022-08-03T10:06:38;9.88;;;4.25;;
44143;SDS011;43510;51.920;4.492;2022-08-03T10:09:05;15.07;;;5.20;;
44143;SDS011;43510;51.920;4.492;2022-08-03T10:11:35;12.20;;;4.95;;
44143;SDS011;43510;51.920;4.492;2022-08-03T10:14:06;10.35;;;4.95;;
44143;SDS011;43510;51.920;4.492;2022-08-03T10:16:36;11.75;;;5.78;;
44143;SDS011;43510;51.920;4.492;2022-08-03T10:19:04;13.60;;;4.68;;
44143;SDS011;43510;51.920;4.492;2022-08-03T10:21:34;15.60;;;5.50;;
44143;SDS011;43510;51.920;4.492;2022-08-03T10:24:03;13.30;;;4.18;;
44143;SDS011;43510;51.920;4.492;2022-08-03T10:26:31;16.35;;;6.35;;
44143;SDS011;43510;51.920;4.492;2022-08-03T10:29:03;15.43;;;5.47;;
44143;SDS011;43510;51.920;4.492;2022-08-03T10:31:38;12.65;;;5.25;;
44143;SDS011;43510;51.920;4.492;2022-08-03T10:34:16;11.90;;;4.50;;
44143;SDS011;43510;51.920;4.492;2022-08-03T10:39:13;11.32;;;4.60;;
44143;SDS011;43510;51.920;4.492;2022-08-03T10:41:42;15.88;;;5.03;;
44143;SDS011;43510;51.920;4.492;2022-08-03T10:44:20;13.75;;;5.43;;
44143;SDS011;43510;51.920;4.492;2022-08-03T10:46:48;13.07;;;3.95;;
44143;SDS011;43510;51.920;4.492;2022-08-03T10:49:15;13.85;;;4.40;;
44143;SDS011;43510;51.920;4.492;2022-08-03T10:51:45;16.67;;;4.68;;
44143;SDS011;43510;51.920;4.492;2022-08-03T10:54:57;15.60;;;5.55;;
44143;SDS011;43510;51.920;4.492;2022-08-03T10:57:00;11.82;;;4.28;;
44143;SDS011;43510;51.920;4.492;2022-08-03T11:02:14;12.38;;;3.67;;
44143;SDS011;43510;51.920;4.492;2022-08-03T11:04:40;14.82;;;4.85;;
44143;SDS011;43510;51.920;4.492;2022-08-03T11:09:44;12.05;;;3.33;;
44143;SDS011;43510;51.920;4.492;2022-08-03T11:12:30;14.40;;;3.53;;
44143;SDS011;43510;51.920;4.492;2022-08-03T11:15:01;14.18;;;3.75;;
44143;SDS011;43510;51.920;4.492;2022-08-03T11:17:29;13.85;;;3.33;;
44143;SDS011;43510;51.920;4.492;2022-08-03T11:19:56;11.13;;;3.72;;
44143;SDS011;43510;51.920;4.492;2022-08-03T11:22:21;16.23;;;4.82;;
44143;SDS011;43510;51.920;4.492;2022-08-03T11:27:31;10.95;;;3.33;;
44143;SDS011;43510;51.920;4.492;2022-08-03T11:30:42;13.63;;;3.80;;
44143;SDS011;43510;51.920;4.492;2022-08-03T11:40:32;9.68;;;3.70;;
44143;SDS011;43510;51.920;4.492;2022-08-03T11:46:05;8.52;;;3.10;;
44143;SDS011;43510;51.920;4.492;2022-08-03T11:48:46;11.75;;;2.90;;
44143;SDS011;43510;51.920;4.492;2022-08-03T11:51:21;11.60;;;3.03;;
44143;SDS011;43510;51.920;4.492;2022-08-03T11:53:56;9.77;;;2.47;;
44143;SDS011;43510;51.920;4.492;2022-08-03T11:56:46;7.82;;;2.60;;
44143;SDS011;43510;51.920;4.492;2022-08-03T11:59:15;10.25;;;2.50;;
44143;SDS011;43510;51.920;4.492;2022-08-03T12:01:42;8.05;;;2.30;;
44143;SDS011;43510;51.920;4.492;2022-08-03T12:04:08;8.60;;;2.42;;
44143;SDS011;43510;51.920;4.492;2022-08-03T12:06:34;5.78;;;2.30;;
44143;SDS011;43510;51.920;4.492;2022-08-03T12:09:18;9.77;;;2.33;;
44143;SDS011;43510;51.920;4.492;2022-08-03T12:11:47;8.60;;;2.00;;
44143;SDS011;43510;51.920;4.492;2022-08-03T12:14:17;9.35;;;2.08;;
44143;SDS011;43510;51.920;4.492;2022-08-03T12:16:48;10.80;;;2.23;;
44143;SDS011;43510;51.920;4.492;2022-08-03T12:19:13;11.38;;;2.42;;
44143;SDS011;43510;51.920;4.492;2022-08-03T12:21:46;9.23;;;2.03;;
44143;SDS011;43510;51.920;4.492;2022-08-03T12:24:15;16.17;;;3.63;;
44143;SDS011;43510;51.920;4.492;2022-08-03T12:26:42;7.45;;;2.42;;
44143;SDS011;43510;51.920;4.492;2022-08-03T12:29:16;7.32;;;2.20;;
44143;SDS011;43510;51.920;4.492;2022-08-03T12:31:42;11.20;;;2.28;;
44143;SDS011;43510;51.920;4.492;2022-08-03T12:34:08;6.50;;;1.73;;
44143;SDS011;43510;51.920;4.492;2022-08-03T12:36:34;8.90;;;1.52;;
44143;SDS011;43510;51.920;4.492;2022-08-03T12:39:05;6.18;;;1.52;;
44143;SDS011;43510;51.920;4.492;2022-08-03T12:41:33;5.68;;;1.55;;
44143;SDS011;43510;51.920;4.492;2022-08-03T12:44:04;8.18;;;1.40;;
44143;SDS011;43510;51.920;4.492;2022-08-03T12:46:34;11.70;;;1.67;;
44143;SDS011;43510;51.920;4.492;2022-08-03T12:49:05;7.57;;;1.73;;
44143;SDS011;43510;51.920;4.492;2022-08-03T12:51:36;4.93;;;1.42;;
44143;SDS011;43510;51.920;4.492;2022-08-03T12:54:23;12.15;;;1.55;;
44143;SDS011;43510;51.920;4.492;2022-08-03T12:59:25;8.20;;;1.55;;
44143;SDS011;43510;51.920;4.492;2022-08-03T13:01:51;7.70;;;1.60;;
44143;SDS011;43510;51.920;4.492;2022-08-03T13:04:33;8.20;;;1.40;;
44143;SDS011;43510;51.920;4.492;2022-08-03T13:07:04;5.20;;;1.52;;
44143;SDS011;43510;51.920;4.492;2022-08-03T13:09:39;10.00;;;1.50;;
44143;SDS011;43510;51.920;4.492;2022-08-03T13:12:13;4.28;;;1.30;;
44143;SDS011;43510;51.920;4.492;2022-08-03T13:14:43;7.45;;;1.55;;
44143;SDS011;43510;51.920;4.492;2022-08-03T13:17:14;4.93;;;1.42;;
44143;SDS011;43510;51.920;4.492;2022-08-03T13:19:43;4.00;;;1.30;;
44143;SDS011;43510;51.920;4.492;2022-08-03T13:22:10;4.80;;;1.17;;
44143;SDS011;43510;51.920;4.492;2022-08-03T13:24:39;5.78;;;1.40;;
44143;SDS011;43510;51.920;4.492;2022-08-03T13:27:06;9.10;;;1.88;;
44143;SDS011;43510;51.920;4.492;2022-08-03T13:29:32;3.50;;;1.17;;
44143;SDS011;43510;51.920;4.492;2022-08-03T13:31:58;4.70;;;1.10;;
44143;SDS011;43510;51.920;4.492;2022-08-03T13:34:24;6.55;;;1.30;;
44143;SDS011;43510;51.920;4.492;2022-08-03T13:36:50;5.15;;;1.10;;
44143;SDS011;43510;51.920;4.492;2022-08-03T13:39:19;4.78;;;1.83;;
44143;SDS011;43510;51.920;4.492;2022-08-03T13:41:44;5.90;;;1.10;;
44143;SDS011;43510;51.920;4.492;2022-08-03T13:44:11;7.72;;;1.15;;
44143;SDS011;43510;51.920;4.492;2022-08-03T13:46:38;8.52;;;1.67;;
44143;SDS011;43510;51.920;4.492;2022-08-03T13:49:04;5.80;;;1.20;;
44143;SDS011;43510;51.920;4.492;2022-08-03T13:51:30;3.20;;;0.90;;
44143;SDS011;43510;51.920;4.492;2022-08-03T13:53:55;5.50;;;1.58;;
44143;SDS011;43510;51.920;4.492;2022-08-03T13:56:23;22.60;;;1.35;;
44143;SDS011;43510;51.920;4.492;2022-08-03T13:58:52;4.70;;;1.65;;
44143;SDS011;43510;51.920;4.492;2022-08-03T14:01:18;8.25;;;1.00;;
44143;SDS011;43510;51.920;4.492;2022-08-03T14:03:43;3.55;;;1.08;;
44143;SDS011;43510;51.920;4.492;2022-08-03T14:06:12;5.50;;;1.30;;
44143;SDS011;43510;51.920;4.492;2022-08-03T14:08:38;5.45;;;1.17;;
44143;SDS011;43510;51.920;4.492;2022-08-03T14:11:03;9.32;;;1.30;;
44143;SDS011;43510;51.920;4.492;2022-08-03T14:13:28;4.18;;;1.17;;
44143;SDS011;43510;51.920;4.492;2022-08-03T14:15:54;4.97;;;1.08;;
44143;SDS011;43510;51.920;4.492;2022-08-03T14:18:20;4.95;;;1.00;;
44143;SDS011;43510;51.920;4.492;2022-08-03T14:20:46;3.90;;;0.95;;
44143;SDS011;43510;51.920;4.492;2022-08-03T14:23:13;4.15;;;0.90;;
44143;SDS011;43510;51.920;4.492;2022-08-03T14:25:38;3.83;;;1.27;;
44143;SDS011;43510;51.920;4.492;2022-08-03T14:28:05;3.95;;;0.90;;
44143;SDS011;43510;51.920;4.492;2022-08-03T14:30:31;6.90;;;1.35;;
44143;SDS011;43510;51.920;4.492;2022-08-03T14:32:56;4.70;;;0.95;;
44143;SDS011;43510;51.920;4.492;2022-08-03T14:35:22;4.05;;;1.27;;
44143;SDS011;43510;51.920;4.492;2022-08-03T14:37:47;4.93;;;1.48;;
44143;SDS011;43510;51.920;4.492;2022-08-03T14:40:13;7.30;;;1.30;;
44143;SDS011;43510;51.920;4.492;2022-08-03T14:42:38;4.63;;;1.02;;
44143;SDS011;43510;51.920;4.492;2022-08-03T14:45:03;3.70;;;0.82;;
44143;SDS011;43510;51.920;4.492;2022-08-03T14:47:29;8.48;;;1.33;;
44143;SDS011;43510;51.920;4.492;2022-08-03T14:49:54;3.38;;;1.15;;
44143;SDS011;43510;51.920;4.492;2022-08-03T14:52:20;4.22;;;1.10;;
44143;SDS011;43510;51.920;4.492;2022-08-03T14:54:45;5.65;;;1.20;;
44143;SDS011;43510;51.920;4.492;2022-08-03T14:57:10;5.95;;;1.25;;
44143;SDS011;43510;51.920;4.492;2022-08-03T14:59:36;6.05;;;1.17;;
44143;SDS011;43510;51.920;4.492;2022-08-03T15:02:01;3.75;;;1.08;;
44143;SDS011;43510;51.920;4.492;2022-08-03T15:04:27;7.30;;;1.10;;
44143;SDS011;43510;51.920;4.492;2022-08-03T15:06:52;6.85;;;1.73;;
44143;SDS011;43510;51.920;4.492;2022-08-03T15:09:18;9.15;;;1.45;;
44143;SDS011;43510;51.920;4.492;2022-08-03T15:11:44;5.47;;;1.40;;
44143;SDS011;43510;51.920;4.492;2022-08-03T15:14:09;13.10;;;1.63;;
44143;SDS011;43510;51.920;4.492;2022-08-03T15:16:35;6.38;;;1.38;;
44143;SDS011;43510;51.920;4.492;2022-08-03T15:19:01;5.70;;;1.13;;
44143;SDS011;43510;51.920;4.492;2022-08-03T15:21:26;11.50;;;1.52;;
44143;SDS011;43510;51.920;4.492;2022-08-03T15:23:52;4.43;;;1.58;;
44143;SDS011;43510;51.920;4.492;2022-08-03T15:26:18;8.27;;;2.13;;
44143;SDS011;43510;51.920;4.492;2022-08-03T15:28:43;6.70;;;1.33;;
44143;SDS011;43510;51.920;4.492;2022-08-03T15:31:10;3.67;;;0.98;;
44143;SDS011;43510;51.920;4.492;2022-08-03T15:33:35;6.05;;;1.20;;